PDT,Max TemperatureF,Mean TemperatureF,Min TemperatureF,Max Dew PointF,MeanDew PointF,Min DewpointF,Max Humidity, Mean Humidity, Min Humidity, Max Sea Level PressureIn, Mean Sea Level PressureIn, Min Sea Level PressureIn, Max VisibilityMiles, Mean VisibilityMiles, Min VisibilityMiles, Max Wind SpeedMPH, Mean Wind SpeedMPH, Max Gust SpeedMPH,PrecipitationIn, CloudCover, Events, WindDirDegrees
2013-4-1,60,48,37,48,43,34,93,79,59,30.17,30.09,29.99,10,10,2,12,3,17,0.00,3,,193
2013-4-2,55,50,46,46,44,43,87,78,67,30.22,30.20,30.18,10,10,10,10,4,,0.00,8,,164
2013-4-3,62,53,44,46,44,41,93,76,48,30.21,30.13,29.97,10,10,6,9,2,,0.00,4,,304
2013-4-4,55,50,46,54,47,43,94,84,72,29.97,29.77,29.65,10,9,5,25,3,31,0.06,7,,146
2013-4-5,60,54,48,48,46,43,88,78,59,29.86,29.81,29.73,10,10,2,23,14,32,0.02,8,,165
2013-4-6,55,50,46,45,41,37,82,74,62,29.92,29.84,29.71,10,10,10,26,15,34,0.01,8,,152
2013-4-7,46,42,39,39,39,36,93,85,71,29.90,29.73,29.54,10,10,4,12,4,,0.58,8,,84
2013-4-8,53,47,41,43,41,39,93,84,67,30.29,30.12,29.91,10,10,7,9,1,,0.01,7,,148
2013-4-9,55,48,42,43,40,36,87,71,51,30.36,30.31,30.19,10,10,10,12,4,,0.00,8,,152
2013-4-10,53,48,44,48,42,37,88,72,58,30.27,30.11,29.89,10,10,4,29,14,38,0.04,7,,292
2013-4-11,53,45,37,41,37,32,87,70,47,30.32,30.28,30.23,10,10,6,13,4,17,0.02,6,,306
2013-4-12,46,42,39,39,37,36,93,80,71,30.06,29.87,29.70,10,10,3,17,8,24,0.06,8,,150
2013-4-13,46,42,37,43,37,30,93,83,70,30.01,29.91,29.75,10,9,1,15,7,30,0.01,7,,260
2013-4-14,42,40,37,37,36,34,93,87,70,30.03,30.01,29.96,10,10,2,6,0,,0.01,7,,161
2013-4-15,53,44,35,41,38,32,93,78,58,30.19,30.05,29.97,10,10,1,17,3,32,0.00,5,Thunderstorm,317
2013-4-16,55,46,37,39,35,30,93,61,47,30.43,30.36,30.33,10,10,10,15,3,18,0.00,3,,308
2013-4-17,59,48,37,39,36,32,87,59,36,30.48,30.45,30.42,10,10,10,14,5,17,0.00,5,,260
2013-4-18,48,45,42,45,41,37,93,81,71,30.48,30.41,30.22,10,10,4,14,5,20,0.00,8,,143
2013-4-19,53,50,48,48,46,45,94,87,77,30.22,30.14,30.08,10,9,2,14,8,16,0.05,8,,172
2013-4-20,53,50,46,45,43,39,93,81,67,30.30,30.27,30.21,10,9,3,13,2,17,0.01,8,,296
2013-4-21,53,46,37,45,40,36,93,81,62,30.38,30.28,30.25,10,9,4,13,3,16,0.06,6,,293
2013-4-22,57,46,35,39,33,23,93,54,30,30.55,30.50,30.46,10,10,10,17,6,18,0.00,0,,317
2013-4-23,60,52,41,43,37,30,81,54,31,30.35,30.31,30.27,10,10,10,15,6,21,0.00,1,,313
2013-4-24,66,52,37,43,38,34,100,56,32,30.35,30.22,30.09,10,10,4,13,3,17,0.00,0,,313
2013-4-25,68,52,37,46,41,34,93,62,37,30.17,30.10,30.07,10,10,8,15,3,,0.00,0,,320
2013-4-26,66,54,41,52,44,37,100,71,48,30.27,30.23,30.17,10,9,0,15,4,21,0.00,1,,270
2013-4-27,55,50,46,48,44,37,94,75,51,30.23,30.20,30.16,10,10,5,21,5,26,0.01,5,,150
2013-4-28,53,50,46,46,44,39,93,81,62,30.24,30.16,29.95,10,10,5,17,2,23,0.01,8,,234
2013-4-29,53,48,42,45,35,30,87,62,41,30.18,30.08,29.94,10,10,9,23,13,32,0.03,4,,297
2013-4-30,53,45,35,37,31,27,87,57,35,30.46,30.32,30.18,10,10,10,15,7,22,0.00,4,,296